createdAt,value
2019-03-03T00:05:28.299Z,82.30
2019-03-03T00:08:17.303Z,81.00
2019-03-03T00:11:05.976Z,81.00
2019-03-03T00:14:06.666Z,79.30
2019-03-03T00:16:45.142Z,78.50
2019-03-03T00:19:34.437Z,76.60
2019-03-03T00:22:23.142Z,74.90
2019-03-03T00:25:11.920Z,75.00
2019-03-03T00:31:09.994Z,74.20
2019-03-03T00:33:51.235Z,73.40
2019-03-03T00:36:51.527Z,72.80
2019-03-03T00:39:53.197Z,71.90
2019-03-03T00:42:54.411Z,71.40
2019-03-03T00:45:45.068Z,70.80
2019-03-03T00:48:45.495Z,70.60
2019-03-03T00:51:45.976Z,71.40
2019-03-03T00:57:28.899Z,71.70
2019-03-03T01:00:30.371Z,72.20
2019-03-03T01:03:06.773Z,72.50
2019-03-03T01:06:07.256Z,72.30
2019-03-03T01:09:13.248Z,73.60
2019-03-03T01:12:19.757Z,73.70
2019-03-03T01:15:19.821Z,73.10
2019-03-03T01:18:19.832Z,73.10
2019-03-03T01:21:23.313Z,72.40
2019-03-03T01:24:23.531Z,72.70
2019-03-03T01:27:05.148Z,71.50
2019-03-03T01:29:46.664Z,71.60
2019-03-03T01:32:28.199Z,71.20
2019-03-03T01:35:09.556Z,70.70
2019-03-03T01:37:50.449Z,70.70
2019-03-03T01:40:31.469Z,70.60
2019-03-03T01:43:12.656Z,70.00
2019-03-03T01:45:54.273Z,69.70
2019-03-03T01:48:35.580Z,69.10
2019-03-03T01:51:16.455Z,69.00
2019-03-03T01:53:58.019Z,68.70
2019-03-03T01:56:39.301Z,68.60
2019-03-03T01:59:20.453Z,68.10
2019-03-03T02:02:02.053Z,67.30
2019-03-03T02:04:43.981Z,67.00
2019-03-03T02:07:25.263Z,66.70
2019-03-03T02:10:06.842Z,66.80
2019-03-03T02:12:48.448Z,65.60
2019-03-03T02:15:29.716Z,65.30
2019-03-03T02:18:11.073Z,65.50
2019-03-03T02:20:52.525Z,64.80
2019-03-03T02:23:34.140Z,65.20
2019-03-03T02:26:13.911Z,65.30
2019-03-03T02:31:58.135Z,65.70
2019-03-03T02:34:39.213Z,65.60
2019-03-03T02:37:20.833Z,65.80
2019-03-03T02:40:02.545Z,66.10
2019-03-03T02:42:44.141Z,65.40
2019-03-03T02:45:25.514Z,65.50
2019-03-03T02:48:06.693Z,65.50
2019-03-03T02:50:48.314Z,65.40
2019-03-03T02:53:29.784Z,65.70
2019-03-03T02:56:11.141Z,65.90
2019-03-03T02:58:52.771Z,66.00
2019-03-03T03:04:42.074Z,65.60
2019-03-03T03:07:41.709Z,64.60
2019-03-03T03:10:41.850Z,65.20
2019-03-03T03:13:42.160Z,65.00
2019-03-03T03:16:42.679Z,64.70
2019-03-03T03:19:42.362Z,64.30
2019-03-03T03:22:42.741Z,64.10
2019-03-03T03:25:57.621Z,63.30
2019-03-03T03:28:50.797Z,63.40
2019-03-03T03:31:51.256Z,63.60
2019-03-03T03:34:39.628Z,63.90
2019-03-03T03:37:39.782Z,63.90
2019-03-03T03:40:54.952Z,63.50
2019-03-03T03:43:35.777Z,63.50
2019-03-03T03:46:38.520Z,63.30
2019-03-03T03:49:38.700Z,63.00
2019-03-03T03:52:29.985Z,63.30
2019-03-03T03:55:30.046Z,63.50
2019-03-03T03:58:32.813Z,64.00
2019-03-03T04:01:33.062Z,64.20
2019-03-03T04:04:33.249Z,64.30
2019-03-03T04:07:46.354Z,64.30
2019-03-03T04:10:43.779Z,64.10
2019-03-03T04:13:51.320Z,64.20
2019-03-03T04:16:46.149Z,64.30
2019-03-03T04:19:53.671Z,64.80
2019-03-03T04:23:01.154Z,64.70
2019-03-03T04:26:08.631Z,64.90
2019-03-03T04:29:14.492Z,64.60
2019-03-03T04:32:21.980Z,64.50
2019-03-03T04:35:21.796Z,65.30
2019-03-03T04:47:48.216Z,65.10
2019-03-03T04:50:45.981Z,65.10
2019-03-03T04:53:53.452Z,65.10
2019-03-03T04:57:00.968Z,65.40
2019-03-03T05:00:08.409Z,65.70
2019-03-03T05:03:15.943Z,66.20
2019-03-03T05:06:23.384Z,66.30
2019-03-03T05:09:30.866Z,66.10
2019-03-03T05:16:05.224Z,66.30
2019-03-03T05:19:02.468Z,67.10
2019-03-03T05:21:51.055Z,66.80
2019-03-03T05:24:39.750Z,66.60
2019-03-03T05:27:28.774Z,66.60
2019-03-03T05:30:17.463Z,66.50
2019-03-03T05:33:06.449Z,66.60
2019-03-03T05:35:47.924Z,67.00
2019-03-03T05:38:28.763Z,67.50
2019-03-03T05:41:10.012Z,67.30
2019-03-03T05:43:49.775Z,67.60
2019-03-03T05:49:47.607Z,66.70
2019-03-03T05:55:45.392Z,66.90
2019-03-03T05:58:34.038Z,66.20
2019-03-03T06:01:23.020Z,65.70
2019-03-03T06:04:11.646Z,66.50
2019-03-03T06:10:08.456Z,66.30
2019-03-03T06:13:11.537Z,66.40
2019-03-03T06:15:47.596Z,66.40
2019-03-03T06:18:36.435Z,66.10
2019-03-03T06:21:39.539Z,66.20
2019-03-03T06:24:16.259Z,66.90
2019-03-03T06:30:28.204Z,66.90
2019-03-03T06:33:04.751Z,66.70
2019-03-03T06:35:46.168Z,66.30
2019-03-03T06:38:27.525Z,66.00
2019-03-03T06:41:09.139Z,65.80
2019-03-03T06:43:50.795Z,65.40
2019-03-03T06:46:32.015Z,65.20
2019-03-03T06:49:12.868Z,64.60
2019-03-03T06:51:53.802Z,65.50
2019-03-03T06:54:34.689Z,65.50
2019-03-03T06:57:15.720Z,65.20
2019-03-03T06:59:57.210Z,65.80
2019-03-03T07:02:38.947Z,66.40
2019-03-03T07:05:20.054Z,66.10
2019-03-03T07:08:01.377Z,66.80
2019-03-03T07:10:42.212Z,67.30
2019-03-03T07:13:23.655Z,67.00
2019-03-03T07:16:05.548Z,67.30
2019-03-03T07:18:47.076Z,68.00
2019-03-03T07:21:27.807Z,67.60
2019-03-03T07:24:09.187Z,67.80
2019-03-03T07:26:50.704Z,67.60
2019-03-03T07:29:32.612Z,67.10
2019-03-03T07:32:14.312Z,67.20
2019-03-03T07:34:55.874Z,67.50
2019-03-03T07:37:35.822Z,67.70
2019-03-03T07:40:24.505Z,67.60
2019-03-03T07:43:13.138Z,66.30
2019-03-03T07:48:57.070Z,65.70
2019-03-03T07:51:45.667Z,65.90
2019-03-03T07:54:34.282Z,66.00
2019-03-03T08:00:17.709Z,66.50
2019-03-03T08:08:57.832Z,66.40
2019-03-03T08:14:40.823Z,67.70
2019-03-03T08:17:29.501Z,68.30
2019-03-03T08:20:18.222Z,68.40
2019-03-03T08:26:02.378Z,70.30
2019-03-03T08:31:46.555Z,71.60
2019-03-03T08:37:29.155Z,73.90
2019-03-03T08:40:18.324Z,74.50
2019-03-03T08:43:25.791Z,76.60
2019-03-03T08:46:33.273Z,78.00
2019-03-03T08:49:27.726Z,79.50
2019-03-03T08:52:35.167Z,81.60
2019-03-03T08:55:43.828Z,81.70
2019-03-03T09:01:55.973Z,83.60
2019-03-03T09:05:03.492Z,84.30
2019-03-03T09:08:10.953Z,84.00
2019-03-03T09:11:18.731Z,84.10
2019-03-03T09:14:26.216Z,85.10
2019-03-03T09:17:33.729Z,87.20
2019-03-03T09:20:41.242Z,86.10
2019-03-03T09:23:48.715Z,85.80
2019-03-03T09:26:56.205Z,83.90
2019-03-03T09:30:03.711Z,81.80
2019-03-03T09:33:11.176Z,79.70
2019-03-03T09:36:11.113Z,78.60
2019-03-03T09:45:20.346Z,77.20
2019-03-03T09:48:20.293Z,75.80
2019-03-03T09:51:37.599Z,75.50
2019-03-03T09:54:25.045Z,75.20
2019-03-03T09:57:14.980Z,74.20
2019-03-03T10:00:15.289Z,73.30
2019-03-03T10:03:15.657Z,72.00
2019-03-03T10:06:18.759Z,70.30
2019-03-03T10:09:18.323Z,69.90
2019-03-03T10:12:04.672Z,70.30
2019-03-03T10:15:03.151Z,70.00
2019-03-03T10:17:56.309Z,69.10
2019-03-03T10:20:45.874Z,69.10
2019-03-03T10:23:46.021Z,69.10
2019-03-03T10:26:46.628Z,68.20
2019-03-03T10:33:12.074Z,67.90
2019-03-03T10:39:40.492Z,69.40
2019-03-03T10:42:47.988Z,71.50
2019-03-03T10:45:55.739Z,71.80
2019-03-03T10:49:03.231Z,72.40
2019-03-03T10:52:10.696Z,72.60
2019-03-03T10:55:18.482Z,71.70
2019-03-03T10:58:25.947Z,71.90
2019-03-03T11:01:33.442Z,72.50
2019-03-03T11:04:41.219Z,72.60
2019-03-03T11:07:48.712Z,72.60
2019-03-03T11:10:57.771Z,73.50
2019-03-03T11:14:05.409Z,73.20
2019-03-03T11:17:00.625Z,73.20
2019-03-03T11:20:08.096Z,72.50
2019-03-03T11:23:15.589Z,72.50
2019-03-03T11:26:23.080Z,71.40
2019-03-03T11:29:23.603Z,70.60
2019-03-03T11:32:24.001Z,70.90
2019-03-03T11:35:23.609Z,72.60
2019-03-03T11:38:39.114Z,73.70
2019-03-03T11:41:34.480Z,75.80
2019-03-03T11:44:41.993Z,77.00
2019-03-03T11:47:41.236Z,76.80
2019-03-03T11:50:48.733Z,78.10
2019-03-03T11:53:56.187Z,78.80
2019-03-03T12:00:09.897Z,80.40
2019-03-03T12:09:53.880Z,82.00
2019-03-03T12:13:01.632Z,81.40
2019-03-03T12:16:09.112Z,81.90
2019-03-03T12:19:16.606Z,81.80
2019-03-03T12:25:38.378Z,81.90
2019-03-03T12:28:50.360Z,82.20
2019-03-03T12:38:05.038Z,81.90
2019-03-03T12:41:12.551Z,81.00
2019-03-03T12:44:19.989Z,81.00
2019-03-03T12:47:27.480Z,79.40
2019-03-03T12:50:35.256Z,80.40
2019-03-03T12:53:42.716Z,79.30
2019-03-03T12:56:50.240Z,77.60
2019-03-03T12:59:43.556Z,78.40
2019-03-03T13:02:51.325Z,78.10
2019-03-03T13:05:59.120Z,76.20
2019-03-03T13:09:06.549Z,75.20
2019-03-03T13:12:14.325Z,73.00
2019-03-03T13:15:08.685Z,73.10
2019-03-03T13:18:16.173Z,73.30
2019-03-03T13:21:24.202Z,73.80
2019-03-03T13:24:33.117Z,73.10
2019-03-03T13:27:28.369Z,73.00
2019-03-03T13:30:28.622Z,73.00
2019-03-03T13:33:29.047Z,72.60
2019-03-03T13:39:36.799Z,73.10
2019-03-03T13:42:43.407Z,72.80
2019-03-03T13:45:24.822Z,72.30
2019-03-03T13:48:06.136Z,72.80
2019-03-03T13:50:47.759Z,73.20
2019-03-03T13:53:29.053Z,73.20
2019-03-03T13:56:10.826Z,72.40
2019-03-03T13:58:52.105Z,73.20
2019-03-03T14:01:33.501Z,73.00
2019-03-03T14:04:14.508Z,72.70
2019-03-03T14:06:55.863Z,73.70
2019-03-03T14:09:36.666Z,73.80
2019-03-03T14:12:18.379Z,73.90
2019-03-03T14:14:59.513Z,73.80
2019-03-03T14:17:40.966Z,73.70
2019-03-03T14:20:21.983Z,73.90
2019-03-03T14:23:02.684Z,73.60
2019-03-03T14:25:44.214Z,74.30
2019-03-03T14:28:25.465Z,75.10
2019-03-03T14:31:06.525Z,77.20
2019-03-03T14:33:47.663Z,77.00
2019-03-03T14:36:28.472Z,77.60
2019-03-03T14:39:10.123Z,78.30
2019-03-03T14:41:51.812Z,78.60
2019-03-03T14:44:33.427Z,80.20
2019-03-03T14:47:14.251Z,81.00
2019-03-03T14:49:55.940Z,80.60
2019-03-03T14:52:37.443Z,80.70
2019-03-03T14:55:19.271Z,80.10
2019-03-03T14:58:00.149Z,79.70
2019-03-03T15:00:41.761Z,79.90
2019-03-03T15:03:21.483Z,79.20
2019-03-03T15:09:38.288Z,79.40
2019-03-03T15:12:26.980Z,80.10
2019-03-03T15:15:15.836Z,79.40
2019-03-03T15:18:04.642Z,79.60
2019-03-03T15:20:53.232Z,79.10
2019-03-03T15:23:41.948Z,78.10
2019-03-03T15:26:30.592Z,76.80
2019-03-03T15:29:19.479Z,76.20
2019-03-03T15:32:22.012Z,76.50
2019-03-03T15:34:58.505Z,76.10
2019-03-03T15:40:46.093Z,76.10
2019-03-03T15:43:34.712Z,76.30
2019-03-03T15:46:23.321Z,76.10
2019-03-03T15:49:11.946Z,76.10
2019-03-03T15:52:14.985Z,76.00
2019-03-03T15:57:51.189Z,76.60
2019-03-03T16:00:40.163Z,76.10
2019-03-03T16:06:17.292Z,76.60
2019-03-03T16:08:58.540Z,76.00
2019-03-03T16:11:39.479Z,76.40
2019-03-03T16:14:20.786Z,75.90
2019-03-03T16:17:00.796Z,75.50
2019-03-03T16:22:57.676Z,76.10
2019-03-03T16:25:35.968Z,75.80
2019-03-03T16:28:36.371Z,76.40
2019-03-03T16:31:14.862Z,76.00
2019-03-03T16:39:57.811Z,76.20
2019-03-03T16:42:46.394Z,77.00
2019-03-03T16:45:35.095Z,77.00
2019-03-03T16:48:23.749Z,77.30
2019-03-03T16:54:11.237Z,77.30
2019-03-03T16:57:13.817Z,76.80
2019-03-03T17:05:33.649Z,77.60
2019-03-03T17:08:15.185Z,77.00
2019-03-03T17:10:54.909Z,77.80
2019-03-03T17:13:43.558Z,77.70
2019-03-03T17:19:40.472Z,77.80
2019-03-03T17:22:17.107Z,77.50
2019-03-03T17:31:20.743Z,76.70
2019-03-03T17:34:13.053Z,76.50
2019-03-03T17:37:00.039Z,76.40
2019-03-03T17:39:48.912Z,76.40
2019-03-03T17:42:37.896Z,76.40
2019-03-03T17:45:26.859Z,75.80
2019-03-03T17:51:11.196Z,76.60
2019-03-03T17:54:13.827Z,75.60
2019-03-03T17:59:49.996Z,75.60
2019-03-03T18:02:38.960Z,75.30
2019-03-03T18:08:36.776Z,73.80
2019-03-03T18:11:25.355Z,72.80
2019-03-03T18:14:14.160Z,72.30
2019-03-03T18:17:03.639Z,71.80
2019-03-03T18:19:52.236Z,71.70
2019-03-03T18:25:55.160Z,71.30
2019-03-03T18:34:45.995Z,70.50
2019-03-03T18:40:20.829Z,69.50
2019-03-03T18:43:09.997Z,69.00
2019-03-03T18:46:12.583Z,69.00
2019-03-03T18:48:49.260Z,69.50
2019-03-03T18:51:50.030Z,69.80
2019-03-03T18:57:16.744Z,68.90
2019-03-03T18:59:58.241Z,68.90
2019-03-03T19:02:39.155Z,69.00
2019-03-03T19:05:19.003Z,69.00
2019-03-03T19:08:07.589Z,68.90
2019-03-03T19:10:56.362Z,68.60
2019-03-03T19:13:45.124Z,68.40
2019-03-03T19:19:56.952Z,68.90
2019-03-03T19:22:33.214Z,68.00
2019-03-03T19:25:35.817Z,67.60
2019-03-03T19:28:12.239Z,68.30
2019-03-03T19:31:01.171Z,68.00
2019-03-03T19:33:51.541Z,67.90
2019-03-03T19:39:49.538Z,67.70
2019-03-03T19:42:38.139Z,67.80
2019-03-03T19:48:55.844Z,67.70
2019-03-03T19:51:32.137Z,67.30
2019-03-03T19:57:09.123Z,67.20
2019-03-03T19:59:50.694Z,67.00
2019-03-03T20:02:32.158Z,66.00
2019-03-03T20:05:11.897Z,66.50
2019-03-03T20:08:00.831Z,66.50
2019-03-03T20:11:01.590Z,66.60
2019-03-03T20:13:40.529Z,67.10
2019-03-03T20:16:41.031Z,65.90
2019-03-03T20:19:19.799Z,65.60
2019-03-03T20:25:02.074Z,65.90
2019-03-03T20:27:50.708Z,66.40
2019-03-03T20:33:34.669Z,65.90
2019-03-03T20:36:23.321Z,65.40
2019-03-03T20:48:32.192Z,64.20
2019-03-03T20:51:20.825Z,64.10
2019-03-03T20:57:11.504Z,63.80
2019-03-03T20:59:52.465Z,63.70
2019-03-03T21:02:33.804Z,64.60
2019-03-03T21:05:15.132Z,64.50
2019-03-03T21:07:56.059Z,64.40
2019-03-03T21:10:37.225Z,64.60
2019-03-03T21:13:18.250Z,64.30
2019-03-03T21:16:00.196Z,64.80
2019-03-03T21:18:41.236Z,65.40
2019-03-03T21:21:22.449Z,66.00
2019-03-03T21:24:04.025Z,66.10
2019-03-03T21:26:43.683Z,65.80
2019-03-03T21:29:32.323Z,65.70
2019-03-03T21:32:35.076Z,65.60
2019-03-03T21:38:20.949Z,65.60
2019-03-03T21:41:09.669Z,65.60
2019-03-03T21:43:58.288Z,65.70
2019-03-03T21:46:47.207Z,65.40
2019-03-03T21:49:37.230Z,65.50
2019-03-03T21:52:26.161Z,65.70
2019-03-03T21:55:07.656Z,66.30
2019-03-03T21:57:49.268Z,66.20
2019-03-03T22:00:29.745Z,67.10
2019-03-03T22:03:18.833Z,67.00
2019-03-03T22:09:16.624Z,67.70
2019-03-03T22:15:00.559Z,68.30
2019-03-03T22:18:03.550Z,67.90
2019-03-03T22:20:39.937Z,68.60
2019-03-03T22:32:13.009Z,67.90
2019-03-03T22:35:01.650Z,68.20
2019-03-03T22:41:05.033Z,68.70
2019-03-03T22:43:54.283Z,69.20
2019-03-03T22:46:42.877Z,69.10
2019-03-03T22:49:31.810Z,69.10
2019-03-03T22:55:22.628Z,69.00
2019-03-03T22:58:03.898Z,68.70
2019-03-03T23:00:49.379Z,69.00
2019-03-03T23:03:30.255Z,69.00
2019-03-03T23:06:11.631Z,69.60
2019-03-03T23:08:53.231Z,70.00
2019-03-03T23:11:34.537Z,69.90
2019-03-03T23:14:35.275Z,70.30
2019-03-03T23:17:42.862Z,70.30
2019-03-03T23:20:50.506Z,70.40
2019-03-03T23:23:58.364Z,69.90
2019-03-03T23:27:01.409Z,69.80
2019-03-03T23:29:37.705Z,69.50
2019-03-03T23:32:33.300Z,69.20
2019-03-03T23:35:22.023Z,68.90
2019-03-03T23:38:10.930Z,69.20
2019-03-03T23:41:14.472Z,69.30
2019-03-03T23:49:39.520Z,68.20
2019-03-03T23:52:28.291Z,68.00
2019-03-03T23:55:09.572Z,68.10
2019-03-03T23:57:51.358Z,67.90
